Time;durP1;ratioP1;P1;durP2;ratioP2;P2;SDS_P1;SDS_P2;PMS_P1;PMS_P2;Temp;Humidity;BMP_temperature;BMP_pressure;BME280_temperature;BME280_humidity;BME280_pressure;Samples;Min_cycle;Max_cycle;Signal;HPM_P1;HPM_P2
2023/12/28 00:01:21;;;;;;;31.27;2.83;;;11.20;99.90;;;;;;5027473;28;20035;-71
2023/12/28 00:03:47;;;;;;;16.67;4.05;;;11.10;99.90;;;;;;5032578;28;20043;-71
2023/12/28 00:06:13;;;;;;;22.95;3.38;;;11.20;99.90;;;;;;5036071;28;20504;-71
2023/12/28 00:08:38;;;;;;;6.75;1.42;;;11.20;99.90;;;;;;5029910;28;20389;-71
2023/12/28 00:11:04;;;;;;;14.10;3.65;;;11.20;99.90;;;;;;5035577;28;20041;-72
2023/12/28 00:13:29;;;;;;;26.52;4.07;;;11.30;99.90;;;;;;5033626;28;20029;-71
2023/12/28 00:15:55;;;;;;;11.05;3.65;;;11.30;99.90;;;;;;5024378;28;20044;-71
2023/12/28 00:18:21;;;;;;;18.10;3.38;;;11.30;99.90;;;;;;5031907;28;20035;-72
2023/12/28 00:20:46;;;;;;;12.30;1.58;;;11.40;99.90;;;;;;5032319;28;20037;-72
2023/12/28 00:23:12;;;;;;;11.32;2.42;;;11.40;99.90;;;;;;5032826;28;20512;-71
2023/12/28 00:25:37;;;;;;;13.68;2.88;;;11.60;99.90;;;;;;5039892;28;20041;-72
2023/12/28 00:28:03;;;;;;;13.05;3.30;;;11.70;99.90;;;;;;5033124;28;20162;-74
2023/12/28 00:30:29;;;;;;;23.08;2.47;;;11.80;99.90;;;;;;5035761;28;20095;-72
2023/12/28 00:32:55;;;;;;;11.05;1.75;;;11.80;99.90;;;;;;5039255;28;20024;-72
2023/12/28 00:35:20;;;;;;;13.75;2.42;;;11.80;99.90;;;;;;5032208;28;20502;-72
2023/12/28 00:37:46;;;;;;;21.70;3.08;;;11.90;99.90;;;;;;5035005;28;20031;-73
2023/12/28 00:40:12;;;;;;;35.88;4.15;;;11.80;99.90;;;;;;5039201;28;20037;-72
2023/12/28 00:42:40;;;;;;;19.38;3.38;;;11.90;99.90;;;;;;5031188;28;20044;-71
2023/12/28 00:45:07;;;;;;;14.65;2.53;;;11.90;99.90;;;;;;5035197;28;20032;-71
2023/12/28 00:47:32;;;;;;;16.52;3.38;;;11.80;99.90;;;;;;5034279;28;20036;-72
2023/12/28 00:49:58;;;;;;;19.98;2.25;;;11.90;99.90;;;;;;5032139;28;20057;-71
2023/12/28 00:52:24;;;;;;;15.07;2.00;;;11.90;99.90;;;;;;5038954;28;20116;-71
2023/12/28 00:54:49;;;;;;;14.38;2.67;;;11.90;99.90;;;;;;5033326;28;20456;-71
2023/12/28 00:57:15;;;;;;;16.38;1.63;;;12.00;99.90;;;;;;5036540;28;20560;-71
2023/12/28 00:59:40;;;;;;;13.98;3.35;;;12.00;99.90;;;;;;5035237;28;20045;-72
2023/12/28 01:02:06;;;;;;;7.53;2.72;;;12.00;99.90;;;;;;5032171;28;20541;-71
2023/12/28 01:04:32;;;;;;;27.88;2.92;;;11.90;99.90;;;;;;5037744;28;20481;-72
2023/12/28 01:07:01;;;;;;;22.48;2.47;;;12.00;99.90;;;;;;5036091;28;20064;-71
2023/12/28 01:09:27;;;;;;;12.30;1.98;;;11.90;99.90;;;;;;5031442;28;20065;-72
2023/12/28 01:11:53;;;;;;;25.83;2.80;;;12.00;99.90;;;;;;5034986;28;20401;-70
2023/12/28 01:14:18;;;;;;;21.35;4.68;;;11.90;99.90;;;;;;5033773;28;20060;-70
2023/12/28 01:16:44;;;;;;;15.35;2.22;;;12.00;99.90;;;;;;5031822;28;20064;-72
2023/12/28 01:19:10;;;;;;;19.70;2.80;;;12.00;99.90;;;;;;5028655;28;20029;-70
2023/12/28 01:21:36;;;;;;;13.88;1.80;;;12.00;99.90;;;;;;5029556;28;20037;-71
2023/12/28 01:24:02;;;;;;;10.43;1.60;;;12.10;99.90;;;;;;5035380;28;20053;-71
2023/12/28 01:26:27;;;;;;;18.88;2.50;;;12.00;99.90;;;;;;5035453;28;20501;-71
2023/12/28 01:28:54;;;;;;;13.07;2.03;;;11.90;99.90;;;;;;5029713;28;20095;-72
2023/12/28 01:31:19;;;;;;;18.27;4.03;;;11.80;99.90;;;;;;5035125;28;20037;-72
2023/12/28 01:33:45;;;;;;;18.45;1.85;;;11.80;99.90;;;;;;5033099;28;20029;-71
2023/12/28 01:36:19;;;;;;;23.02;3.80;;;11.80;99.90;;;;;;5031449;28;20125;-72
2023/12/28 01:38:45;;;;;;;17.40;2.83;;;11.80;99.90;;;;;;5037336;28;20034;-71
2023/12/28 01:41:12;;;;;;;23.88;2.17;;;11.80;99.90;;;;;;5034242;28;20645;-71
2023/12/28 01:43:38;;;;;;;13.10;3.72;;;11.80;99.90;;;;;;5034924;28;20179;-71
2023/12/28 01:46:05;;;;;;;30.55;3.45;;;11.80;99.90;;;;;;5034626;28;20446;-71
2023/12/28 01:48:32;;;;;;;23.83;3.40;;;11.90;99.90;;;;;;5027656;28;20033;-72
2023/12/28 01:50:59;;;;;;;25.58;2.53;;;11.90;99.90;;;;;;5030845;28;20029;-71
2023/12/28 01:53:24;;;;;;;14.93;3.47;;;11.90;99.90;;;;;;5036354;28;20037;-72
2023/12/28 01:55:51;;;;;;;9.02;2.35;;;11.90;99.90;;;;;;5030324;28;20037;-72
2023/12/28 01:58:17;;;;;;;22.45;3.63;;;11.80;99.90;;;;;;5031318;28;20035;-72
2023/12/28 02:00:45;;;;;;;19.15;2.28;;;11.80;99.90;;;;;;5035749;28;20068;-72
2023/12/28 02:03:11;;;;;;;20.05;3.35;;;11.80;99.90;;;;;;5034120;28;20061;-72
2023/12/28 02:05:37;;;;;;;8.40;1.92;;;11.70;99.90;;;;;;5033793;28;20090;-72
2023/12/28 02:08:04;;;;;;;24.65;3.53;;;11.80;99.90;;;;;;5030656;28;20032;-72
2023/12/28 02:10:29;;;;;;;14.50;3.22;;;11.70;99.90;;;;;;5035543;28;20516;-72
2023/12/28 02:12:55;;;;;;;16.70;2.90;;;11.70;99.90;;;;;;5060260;28;20071;-71
2023/12/28 02:15:21;;;;;;;20.65;3.22;;;11.70;99.90;;;;;;5033781;28;20497;-70
2023/12/28 02:17:58;;;;;;;26.20;3.50;;;11.60;99.90;;;;;;5033161;28;20040;-71
2023/12/28 02:20:25;;;;;;;17.73;3.35;;;11.60;99.90;;;;;;5032368;28;20025;-70
2023/12/28 02:22:52;;;;;;;10.00;2.65;;;11.70;99.90;;;;;;5028957;28;20710;-71
2023/12/28 02:25:17;;;;;;;14.55;4.15;;;11.70;99.90;;;;;;5032287;28;20017;-71
2023/12/28 02:27:46;;;;;;;13.10;2.80;;;11.80;99.90;;;;;;5034950;28;20504;-71
2023/12/28 02:30:15;;;;;;;17.90;2.58;;;11.80;99.90;;;;;;5029713;28;20030;-72
2023/12/28 02:33:12;;;;;;;25.77;2.75;;;11.80;99.90;;;;;;5034685;28;20028;-72
2023/12/28 02:35:43;;;;;;;23.90;4.30;;;11.60;99.90;;;;;;5030076;28;20036;-71
2023/12/28 02:38:11;;;;;;;29.05;5.70;;;11.60;99.90;;;;;;5034567;28;20116;-72
2023/12/28 02:40:39;;;;;;;20.27;2.60;;;11.60;99.90;;;;;;5034699;28;20032;-71
2023/12/28 02:43:06;;;;;;;27.63;2.78;;;11.60;99.90;;;;;;5032354;28;20032;-72
2023/12/28 02:45:32;;;;;;;30.77;3.10;;;11.70;99.90;;;;;;5037557;28;20040;-71
2023/12/28 02:47:58;;;;;;;17.35;3.38;;;11.70;99.90;;;;;;5035954;28;20029;-71
2023/12/28 02:50:23;;;;;;;21.58;3.25;;;11.70;99.90;;;;;;5029132;28;20040;-71
2023/12/28 02:52:49;;;;;;;23.98;3.42;;;11.80;99.90;;;;;;5033768;28;20430;-72
2023/12/28 02:55:15;;;;;;;14.90;3.22;;;11.80;99.90;;;;;;5028249;28;20041;-72
2023/12/28 02:57:40;;;;;;;13.18;2.35;;;11.80;99.90;;;;;;5031200;28;20182;-72
2023/12/28 03:00:08;;;;;;;21.13;2.00;;;11.80;99.90;;;;;;5035708;28;20081;-71
2023/12/28 03:02:36;;;;;;;24.08;2.50;;;11.80;99.90;;;;;;5031725;28;20120;-73
2023/12/28 03:05:31;;;;;;;19.77;2.85;;;11.80;99.90;;;;;;5032362;28;20432;-71
2023/12/28 03:07:58;;;;;;;18.25;2.60;;;11.80;99.90;;;;;;5036884;28;20052;-71
2023/12/28 03:10:23;;;;;;;14.20;2.13;;;11.80;99.90;;;;;;5030695;28;21154;-71
2023/12/28 03:12:49;;;;;;;17.65;2.17;;;11.80;99.90;;;;;;5037341;28;20493;-71
2023/12/28 03:15:15;;;;;;;15.10;2.30;;;11.80;99.90;;;;;;5029948;28;20119;-71
2023/12/28 03:17:41;;;;;;;17.98;2.85;;;11.80;99.90;;;;;;5030636;28;20065;-71
2023/12/28 03:20:07;;;;;;;23.15;2.15;;;11.80;99.90;;;;;;5034754;28;20504;-71
2023/12/28 03:22:33;;;;;;;16.90;2.90;;;11.80;99.90;;;;;;5031765;28;20509;-71
2023/12/28 03:24:59;;;;;;;17.02;2.58;;;11.70;99.90;;;;;;5031797;28;20041;-71
2023/12/28 03:27:24;;;;;;;15.07;2.75;;;11.60;99.90;;;;;;5032169;28;20453;-72
2023/12/28 03:29:50;;;;;;;16.55;2.67;;;11.60;99.90;;;;;;5026611;28;20037;-72
2023/12/28 03:32:15;;;;;;;30.70;3.80;;;11.70;99.90;;;;;;5039463;28;20106;-71
2023/12/28 03:34:41;;;;;;;20.48;4.07;;;11.70;99.90;;;;;;5034349;28;20634;-72
2023/12/28 03:37:07;;;;;;;10.43;3.08;;;11.70;99.90;;;;;;5030026;28;20428;-73
2023/12/28 03:39:33;;;;;;;10.35;1.75;;;11.60;99.90;;;;;;5036060;28;20035;-72
2023/12/28 03:41:59;;;;;;;25.50;3.22;;;11.60;99.90;;;;;;5030746;28;20036;-71
2023/12/28 03:44:25;;;;;;;8.27;2.42;;;11.60;99.90;;;;;;5031520;28;20025;-72
2023/12/28 03:46:51;;;;;;;27.38;3.50;;;11.60;99.90;;;;;;5034252;28;20064;-72
2023/12/28 03:49:17;;;;;;;14.65;2.65;;;11.60;99.90;;;;;;5026025;28;20493;-72
2023/12/28 03:51:43;;;;;;;21.83;2.70;;;11.50;99.90;;;;;;5032391;28;20085;-72
2023/12/28 03:54:09;;;;;;;17.45;2.72;;;11.50;99.90;;;;;;5033990;28;20029;-71
2023/12/28 03:56:35;;;;;;;23.38;3.95;;;11.50;99.90;;;;;;5027759;28;20103;-71
2023/12/28 03:59:01;;;;;;;24.02;2.92;;;11.50;99.90;;;;;;5035053;28;20029;-72
2023/12/28 04:01:27;;;;;;;15.95;2.30;;;11.50;99.90;;;;;;5034214;28;20160;-71
2023/12/28 04:03:53;;;;;;;21.98;4.20;;;11.60;99.90;;;;;;5034182;28;20404;-72
2023/12/28 04:06:18;;;;;;;12.65;2.88;;;11.60;99.90;;;;;;5041043;28;20032;-72
2023/12/28 04:08:44;;;;;;;25.73;3.95;;;11.60;99.90;;;;;;5034290;28;20312;-72
2023/12/28 04:11:10;;;;;;;14.75;2.45;;;11.60;99.90;;;;;;5037991;28;20099;-71
2023/12/28 04:13:36;;;;;;;14.45;3.40;;;11.50;99.90;;;;;;5035779;28;20036;-71
2023/12/28 04:16:03;;;;;;;14.30;2.00;;;11.60;99.90;;;;;;5032285;28;20107;-70
2023/12/28 04:18:29;;;;;;;11.25;2.53;;;11.60;99.90;;;;;;5032261;28;20505;-73
2023/12/28 04:20:55;;;;;;;14.50;3.22;;;11.60;99.90;;;;;;5039843;28;20044;-71
2023/12/28 04:23:21;;;;;;;18.35;3.15;;;11.70;99.90;;;;;;5031981;28;20037;-72
2023/12/28 04:25:46;;;;;;;20.75;2.65;;;11.60;99.90;;;;;;5033521;28;20029;-72
2023/12/28 04:28:12;;;;;;;22.75;2.50;;;11.50;99.90;;;;;;5037692;28;20029;-70
2023/12/28 04:30:38;;;;;;;7.97;2.13;;;11.60;99.90;;;;;;5034894;28;20032;-71
2023/12/28 04:33:04;;;;;;;39.40;3.35;;;11.60;99.90;;;;;;5038883;28;20033;-71
2023/12/28 04:35:30;;;;;;;23.58;3.30;;;11.50;99.90;;;;;;5036080;28;20037;-71
2023/12/28 04:37:56;;;;;;;7.45;1.52;;;11.60;99.90;;;;;;5035972;28;20039;-71
2023/12/28 04:40:22;;;;;;;26.95;3.60;;;11.60;99.90;;;;;;5038712;28;20033;-71
2023/12/28 04:42:47;;;;;;;22.83;3.05;;;11.60;99.90;;;;;;5034671;28;20116;-71
2023/12/28 04:45:13;;;;;;;19.77;2.95;;;11.60;99.90;;;;;;5036945;28;20030;-71
2023/12/28 04:47:39;;;;;;;13.00;2.53;;;11.60;99.90;;;;;;5034780;28;20409;-72
2023/12/28 04:50:06;;;;;;;22.90;3.30;;;11.60;99.90;;;;;;5041712;28;20105;-75
2023/12/28 04:52:32;;;;;;;9.07;2.22;;;11.60;99.90;;;;;;5062223;28;20045;-76
2023/12/28 04:54:58;;;;;;;4.65;1.00;;;11.10;99.90;;;;;;5038588;28;20044;-76
2023/12/28 04:57:25;;;;;;;13.48;1.55;;;10.80;99.90;;;;;;5033158;28;20037;-77
2023/12/28 04:59:52;;;;;;;12.40;1.77;;;10.70;99.90;;;;;;5037199;28;20048;-76
2023/12/28 05:02:17;;;;;;;13.13;1.33;;;10.70;99.90;;;;;;5032548;28;20508;-77
2023/12/28 05:04:43;;;;;;;1.45;0.52;;;10.60;99.90;;;;;;5023958;28;20418;-78
2023/12/28 05:07:09;;;;;;;1.33;0.70;;;10.40;99.90;;;;;;5039217;28;20451;-77
2023/12/28 05:09:35;;;;;;;8.23;1.20;;;10.20;99.90;;;;;;5031811;28;20116;-76
2023/12/28 05:12:00;;;;;;;2.65;0.75;;;10.10;99.90;;;;;;5023369;28;21077;-75
2023/12/28 05:14:26;;;;;;;24.05;2.05;;;10.20;99.90;;;;;;5035168;28;20067;-75
2023/12/28 05:16:51;;;;;;;12.07;2.03;;;10.40;99.90;;;;;;5029173;28;20025;-75
2023/12/28 05:19:17;;;;;;;23.38;3.92;;;10.40;99.90;;;;;;5035653;28;20091;-74
2023/12/28 05:21:43;;;;;;;30.25;3.70;;;10.60;99.90;;;;;;5034350;28;20131;-74
2023/12/28 05:24:08;;;;;;;18.23;4.68;;;10.80;99.90;;;;;;5036650;28;20469;-74
2023/12/28 05:26:34;;;;;;;10.93;2.20;;;10.90;99.90;;;;;;5033507;28;20025;-73
2023/12/28 05:29:00;;;;;;;18.88;4.93;;;10.90;99.90;;;;;;5029692;28;20025;-73
2023/12/28 05:31:26;;;;;;;12.75;2.95;;;10.90;99.90;;;;;;5032177;28;20417;-73
2023/12/28 05:33:51;;;;;;;14.23;3.42;;;10.90;99.90;;;;;;5030690;28;20108;-73
2023/12/28 05:36:17;;;;;;;7.82;2.00;;;10.80;99.90;;;;;;5031472;28;20192;-72
2023/12/28 05:38:43;;;;;;;10.13;2.40;;;10.80;99.90;;;;;;5038294;28;20120;-73
2023/12/28 05:41:10;;;;;;;19.40;2.30;;;10.80;99.90;;;;;;5037722;28;20383;-72
2023/12/28 05:43:36;;;;;;;17.23;2.95;;;10.90;99.90;;;;;;5033585;28;20037;-72
2023/12/28 05:46:02;;;;;;;24.60;2.50;;;11.00;99.90;;;;;;5033020;28;20167;-72
2023/12/28 05:48:27;;;;;;;17.55;2.03;;;11.00;99.90;;;;;;5035775;28;20090;-72
2023/12/28 05:50:53;;;;;;;28.60;3.22;;;11.00;99.90;;;;;;5030700;28;20079;-71
2023/12/28 05:53:18;;;;;;;16.42;3.53;;;11.00;99.90;;;;;;5035926;28;20493;-72
2023/12/28 05:55:44;;;;;;;10.60;1.95;;;11.10;99.90;;;;;;5033298;28;20061;-73
2023/12/28 05:58:10;;;;;;;16.45;2.85;;;11.10;99.90;;;;;;5029291;28;20029;-73
2023/12/28 06:00:38;;;;;;;27.58;2.53;;;11.10;99.90;;;;;;5034893;28;20148;-73
2023/12/28 06:03:04;;;;;;;17.95;2.55;;;11.10;99.90;;;;;;5028355;28;20036;-73
2023/12/28 06:05:30;;;;;;;16.48;2.92;;;11.10;99.90;;;;;;5030864;28;20029;-73
2023/12/28 06:07:55;;;;;;;6.35;2.38;;;11.10;99.90;;;;;;5033009;28;20485;-73
2023/12/28 06:10:21;;;;;;;43.38;4.13;;;11.00;99.90;;;;;;5030864;28;20110;-73
2023/12/28 06:12:47;;;;;;;34.13;2.97;;;11.00;99.90;;;;;;5036480;28;20042;-73
2023/12/28 06:15:12;;;;;;;29.95;4.53;;;11.00;99.90;;;;;;5036495;28;20068;-72
2023/12/28 06:17:38;;;;;;;12.25;2.70;;;11.00;99.90;;;;;;5031654;28;20133;-72
2023/12/28 06:20:04;;;;;;;27.17;4.57;;;11.00;99.90;;;;;;5024307;28;20174;-72
2023/12/28 06:22:30;;;;;;;21.27;2.70;;;11.10;99.90;;;;;;5034500;28;20732;-72
2023/12/28 06:24:56;;;;;;;15.98;2.03;;;11.00;99.90;;;;;;5019680;28;20039;-71
2023/12/28 06:27:23;;;;;;;24.55;2.70;;;11.00;99.90;;;;;;5035055;28;20087;-72
2023/12/28 06:29:49;;;;;;;21.90;2.63;;;11.00;99.90;;;;;;5028580;28;20033;-72
2023/12/28 06:32:15;;;;;;;15.70;3.08;;;11.00;99.90;;;;;;5032804;28;20037;-72
2023/12/28 06:34:40;;;;;;;14.90;2.90;;;11.00;99.90;;;;;;5031929;28;20044;-72
2023/12/28 06:37:06;;;;;;;10.35;1.30;;;10.90;99.90;;;;;;5029432;28;20021;-72
2023/12/28 06:39:32;;;;;;;17.58;2.63;;;10.90;99.90;;;;;;5034552;28;20131;-74
2023/12/28 06:41:57;;;;;;;14.43;3.53;;;10.90;99.90;;;;;;5038953;28;20100;-73
2023/12/28 06:44:23;;;;;;;21.08;2.88;;;10.90;99.90;;;;;;5029916;28;20039;-72
2023/12/28 06:46:49;;;;;;;30.80;3.15;;;10.90;99.90;;;;;;5034553;28;20064;-72
2023/12/28 06:49:14;;;;;;;12.65;2.08;;;10.90;99.90;;;;;;5036707;28;20047;-73
2023/12/28 06:51:40;;;;;;;21.92;3.30;;;10.90;99.90;;;;;;5031529;28;20040;-72
2023/12/28 06:54:06;;;;;;;27.08;3.50;;;11.00;99.90;;;;;;5034306;28;20068;-73
2023/12/28 06:56:31;;;;;;;13.93;3.53;;;10.90;99.90;;;;;;5033705;28;20207;-73
2023/12/28 06:58:57;;;;;;;20.98;3.22;;;10.80;99.90;;;;;;5034994;28;20041;-73
2023/12/28 07:01:22;;;;;;;11.18;3.50;;;10.80;99.90;;;;;;5032612;28;20148;-73
2023/12/28 07:03:48;;;;;;;30.75;3.05;;;11.00;99.90;;;;;;5019246;28;20386;-72
2023/12/28 07:06:14;;;;;;;20.75;4.10;;;11.00;99.90;;;;;;5032492;28;20470;-72
2023/12/28 07:08:39;;;;;;;14.60;2.35;;;11.10;99.90;;;;;;5016348;28;20485;-71
2023/12/28 07:11:05;;;;;;;26.02;3.08;;;11.10;99.90;;;;;;5025715;28;20033;-72
2023/12/28 07:13:31;;;;;;;22.70;2.72;;;11.20;99.90;;;;;;5037921;28;20519;-73
2023/12/28 07:15:57;;;;;;;16.10;3.38;;;11.20;99.90;;;;;;5031685;28;20067;-73
2023/12/28 07:18:23;;;;;;;17.35;2.47;;;11.20;99.90;;;;;;5031348;28;20033;-73
2023/12/28 07:20:48;;;;;;;18.42;2.85;;;11.20;99.90;;;;;;5036282;28;20102;-73
2023/12/28 07:23:14;;;;;;;29.30;2.72;;;11.20;99.90;;;;;;5030506;28;20068;-75
2023/12/28 07:25:40;;;;;;;12.80;3.63;;;11.10;99.90;;;;;;5033789;28;20699;-76
2023/12/28 07:28:06;;;;;;;16.23;1.95;;;11.10;99.90;;;;;;5038254;28;20075;-75
2023/12/28 07:30:32;;;;;;;11.18;1.92;;;11.00;99.90;;;;;;5056109;28;20056;-76
2023/12/28 07:32:57;;;;;;;11.40;2.22;;;10.90;99.90;;;;;;5043297;28;20033;-75
2023/12/28 07:35:23;;;;;;;13.35;3.00;;;11.00;99.90;;;;;;5037184;28;20103;-74
2023/12/28 07:37:49;;;;;;;15.80;3.00;;;10.90;99.90;;;;;;5031771;28;20287;-74
2023/12/28 07:40:15;;;;;;;21.63;2.67;;;11.00;99.90;;;;;;5037804;28;20039;-73
2023/12/28 07:42:41;;;;;;;10.45;3.30;;;11.00;99.90;;;;;;5035872;28;20026;-75
2023/12/28 07:45:06;;;;;;;21.98;2.90;;;11.00;99.90;;;;;;5035026;28;20371;-75
2023/12/28 07:47:33;;;;;;;20.23;3.95;;;11.00;99.90;;;;;;5037863;28;20041;-75
2023/12/28 07:49:59;;;;;;;11.88;2.60;;;11.00;99.90;;;;;;5037756;28;21460;-75
2023/12/28 07:52:26;;;;;;;29.38;4.72;;;11.00;99.90;;;;;;5038209;28;20029;-74
2023/12/28 07:54:51;;;;;;;19.40;3.75;;;10.90;99.90;;;;;;5039165;28;20025;-74
2023/12/28 07:57:17;;;;;;;18.17;2.50;;;10.80;99.90;;;;;;5033568;28;20020;-74
2023/12/28 07:59:43;;;;;;;19.90;2.78;;;10.80;99.90;;;;;;5039137;28;20052;-73
2023/12/28 08:02:09;;;;;;;12.23;1.77;;;10.80;99.90;;;;;;5037017;28;20024;-72
2023/12/28 08:04:35;;;;;;;20.38;3.45;;;10.80;99.90;;;;;;5031845;28;20170;-73
2023/12/28 08:07:00;;;;;;;15.77;2.83;;;10.80;99.90;;;;;;5035850;28;20040;-72
2023/12/28 08:09:26;;;;;;;15.27;2.88;;;10.90;99.90;;;;;;5037482;28;20120;-73
2023/12/28 08:11:52;;;;;;;26.60;3.35;;;10.90;99.90;;;;;;5031926;28;20125;-73
2023/12/28 08:14:19;;;;;;;18.60;2.42;;;10.90;99.90;;;;;;5041432;28;20029;-72
2023/12/28 08:16:44;;;;;;;16.77;2.25;;;10.90;99.90;;;;;;5033878;28;20038;-73
2023/12/28 08:19:10;;;;;;;17.48;3.25;;;11.00;99.90;;;;;;5038214;28;20039;-72
2023/12/28 08:21:36;;;;;;;12.45;2.15;;;11.10;99.90;;;;;;5041364;28;20037;-73
2023/12/28 08:24:02;;;;;;;19.80;1.88;;;11.00;99.90;;;;;;5034373;28;20033;-72
2023/12/28 08:26:28;;;;;;;12.70;1.40;;;11.00;99.90;;;;;;5038463;28;20148;-72
2023/12/28 08:28:53;;;;;;;18.77;1.92;;;11.00;99.90;;;;;;5034662;28;20156;-72
2023/12/28 08:31:19;;;;;;;16.20;2.35;;;10.90;99.90;;;;;;5033135;28;20124;-73
2023/12/28 08:33:44;;;;;;;38.67;4.25;;;10.80;99.90;;;;;;5035171;28;20111;-73
2023/12/28 08:36:11;;;;;;;22.02;2.63;;;10.80;99.90;;;;;;5038582;28;20112;-73
2023/12/28 08:38:37;;;;;;;19.33;3.05;;;10.80;99.90;;;;;;5028479;28;20084;-72
2023/12/28 08:41:08;;;;;;;27.98;4.55;;;11.00;99.90;;;;;;5034774;28;20127;-72
2023/12/28 08:43:34;;;;;;;7.05;2.60;;;10.90;99.90;;;;;;5031594;28;20361;-72
2023/12/28 08:46:00;;;;;;;24.98;4.15;;;10.90;99.90;;;;;;5041169;28;20618;-72
2023/12/28 08:48:26;;;;;;;27.85;3.35;;;11.00;99.90;;;;;;5038900;28;20033;-72
2023/12/28 08:50:51;;;;;;;10.43;1.73;;;11.10;99.90;;;;;;5033537;28;20769;-72
2023/12/28 08:53:17;;;;;;;24.73;2.55;;;11.00;99.90;;;;;;5037045;28;20040;-73
2023/12/28 08:55:43;;;;;;;25.35;3.72;;;11.10;99.90;;;;;;5035645;28;20060;-71
2023/12/28 08:58:08;;;;;;;11.68;1.70;;;11.10;99.90;;;;;;5033542;28;20420;-72
2023/12/28 09:00:34;;;;;;;19.17;2.15;;;11.10;99.90;;;;;;5033908;28;20064;-72
2023/12/28 09:02:59;;;;;;;16.60;3.80;;;11.20;99.90;;;;;;5032194;28;20105;-72
2023/12/28 09:05:25;;;;;;;18.67;2.60;;;11.20;99.90;;;;;;5032184;28;20024;-73
2023/12/28 09:07:51;;;;;;;15.68;2.25;;;11.20;99.90;;;;;;5037951;28;20417;-72
2023/12/28 09:10:16;;;;;;;21.00;3.03;;;11.20;99.90;;;;;;5031739;28;20119;-72
2023/12/28 09:12:42;;;;;;;26.73;2.90;;;11.20;99.90;;;;;;5032613;28;20048;-72
2023/12/28 09:15:08;;;;;;;10.30;2.03;;;11.20;99.90;;;;;;5038193;28;20032;-73
2023/12/28 09:17:34;;;;;;;22.75;2.78;;;11.20;99.90;;;;;;5032504;28;20119;-72
2023/12/28 09:20:01;;;;;;;22.13;1.88;;;11.10;99.90;;;;;;5036372;28;20033;-73
2023/12/28 09:22:27;;;;;;;14.07;1.75;;;11.20;99.90;;;;;;5037875;28;20036;-71
2023/12/28 09:24:52;;;;;;;31.33;2.67;;;11.20;99.90;;;;;;5028176;28;20505;-71
2023/12/28 09:27:18;;;;;;;12.40;2.55;;;11.20;99.90;;;;;;5037718;28;20405;-73
2023/12/28 09:29:44;;;;;;;9.98;1.52;;;11.20;99.90;;;;;;5036066;28;20162;-71
2023/12/28 09:32:09;;;;;;;10.02;2.35;;;11.30;99.90;;;;;;5032016;28;20033;-72
2023/12/28 09:34:35;;;;;;;10.27;2.22;;;11.20;99.90;;;;;;5037386;28;20037;-71
2023/12/28 09:37:01;;;;;;;8.88;1.65;;;11.30;99.90;;;;;;5034312;28;20125;-71
2023/12/28 09:39:26;;;;;;;18.27;2.90;;;11.20;99.90;;;;;;5033432;28;20029;-71
2023/12/28 09:42:00;;;;;;;30.45;3.60;;;11.20;99.90;;;;;;5031141;28;20113;-71
2023/12/28 09:44:27;;;;;;;7.90;0.88;;;11.30;99.90;;;;;;5031719;28;20728;-72
2023/12/28 09:46:55;;;;;;;7.60;2.10;;;11.30;99.90;;;;;;5039038;28;20021;-72
2023/12/28 09:49:21;;;;;;;7.38;1.75;;;11.30;99.90;;;;;;5038830;28;20410;-71
2023/12/28 09:51:47;;;;;;;13.10;1.55;;;11.30;99.90;;;;;;5030060;28;20489;-71
2023/12/28 09:54:13;;;;;;;38.05;3.17;;;11.30;99.90;;;;;;5036058;28;20037;-72
2023/12/28 09:56:41;;;;;;;5.97;1.50;;;11.20;99.90;;;;;;5021470;28;20056;-71
2023/12/28 09:59:07;;;;;;;14.05;2.38;;;11.20;99.90;;;;;;5030353;28;20036;-72
2023/12/28 10:01:34;;;;;;;16.75;3.90;;;11.20;99.90;;;;;;5031931;28;21215;-72
2023/12/28 10:04:03;;;;;;;8.55;1.73;;;11.20;99.90;;;;;;5027733;28;20481;-71
2023/12/28 10:06:28;;;;;;;14.98;3.13;;;11.30;99.90;;;;;;5032148;28;20022;-71
2023/12/28 10:08:55;;;;;;;22.17;2.63;;;11.30;99.90;;;;;;5048368;28;20037;-71
2023/12/28 10:11:21;;;;;;;15.50;3.03;;;11.40;99.90;;;;;;5040872;28;20040;-72
2023/12/28 10:13:49;;;;;;;9.07;1.92;;;11.40;99.90;;;;;;5034085;28;20033;-71
2023/12/28 10:16:15;;;;;;;8.60;2.08;;;11.40;99.90;;;;;;5035559;28;20040;-71
2023/12/28 10:18:43;;;;;;;13.88;3.65;;;11.50;99.90;;;;;;5031938;28;20078;-72
2023/12/28 10:21:09;;;;;;;34.55;4.03;;;11.60;99.90;;;;;;5035349;28;20025;-72
2023/12/28 10:23:35;;;;;;;6.70;1.27;;;11.70;99.90;;;;;;5036313;28;20465;-71
2023/12/28 10:26:01;;;;;;;16.38;2.38;;;11.80;99.90;;;;;;5029337;28;20155;-73
2023/12/28 10:28:27;;;;;;;19.50;3.40;;;12.00;99.90;;;;;;5036846;28;20036;-72
2023/12/28 10:30:56;;;;;;;15.50;3.33;;;12.20;99.90;;;;;;5029350;28;20033;-72
2023/12/28 10:33:22;;;;;;;14.05;2.60;;;12.40;99.90;;;;;;5032894;28;20056;-72
2023/12/28 10:35:50;;;;;;;22.05;4.43;;;12.40;99.90;;;;;;5036201;28;21232;-71
2023/12/28 10:38:17;;;;;;;19.88;2.38;;;12.40;99.90;;;;;;5034108;28;20025;-72
2023/12/28 10:40:45;;;;;;;14.73;2.83;;;12.40;99.90;;;;;;5031958;28;21083;-72
2023/12/28 10:43:14;;;;;;;9.43;2.13;;;12.30;99.90;;;;;;5028939;28;20036;-72
2023/12/28 10:45:40;;;;;;;19.30;3.50;;;12.30;99.90;;;;;;5029436;28;20489;-72
2023/12/28 10:48:09;;;;;;;13.25;2.92;;;12.20;99.90;;;;;;5034433;28;20544;-72
2023/12/28 10:50:56;;;;;;;18.23;2.47;;;12.20;99.90;;;;;;5036801;28;20036;-72
2023/12/28 10:53:37;;;;;;;20.38;2.20;;;12.10;99.90;;;;;;5035656;28;20036;-72
2023/12/28 10:56:05;;;;;;;24.13;3.03;;;12.10;99.90;;;;;;5034285;28;20053;-73
2023/12/28 10:58:48;;;;;;;17.95;3.47;;;12.20;99.90;;;;;;5029247;28;20033;-71
2023/12/28 11:01:23;;;;;;;13.35;1.77;;;12.20;99.90;;;;;;5038840;28;20060;-72
2023/12/28 11:03:57;;;;;;;15.60;2.13;;;12.30;99.90;;;;;;5031852;28;20155;-71
2023/12/28 11:06:24;;;;;;;15.48;2.20;;;12.40;99.90;;;;;;5030206;28;20029;-72
2023/12/28 11:08:53;;;;;;;23.48;2.42;;;12.40;99.90;;;;;;5033989;28;20036;-71
2023/12/28 11:11:21;;;;;;;21.50;2.75;;;12.30;99.90;;;;;;5029270;28;20499;-71
2023/12/28 11:13:48;;;;;;;22.08;3.35;;;12.30;99.90;;;;;;5031826;28;20426;-72
2023/12/28 11:16:14;;;;;;;17.75;3.28;;;12.40;99.90;;;;;;5036098;28;20473;-71
2023/12/28 11:18:40;;;;;;;16.20;3.38;;;12.40;99.90;;;;;;5028744;28;20025;-71
2023/12/28 11:21:06;;;;;;;12.50;1.70;;;12.40;99.90;;;;;;5036825;28;20756;-72
2023/12/28 11:23:32;;;;;;;16.48;1.90;;;12.40;99.90;;;;;;5038607;28;20059;-72
2023/12/28 11:25:58;;;;;;;19.52;2.67;;;12.50;99.90;;;;;;5025892;28;20489;-71
2023/12/28 11:28:24;;;;;;;14.68;2.97;;;12.60;99.90;;;;;;5034285;28;20044;-71
2023/12/28 11:30:51;;;;;;;13.30;3.08;;;12.60;99.90;;;;;;5031935;28;20090;-71
2023/12/28 11:33:17;;;;;;;19.90;2.22;;;12.50;99.90;;;;;;5032043;28;20030;-72
2023/12/28 11:35:43;;;;;;;25.60;2.53;;;12.50;99.90;;;;;;5034310;28;20594;-70
2023/12/28 11:38:11;;;;;;;12.23;3.97;;;12.60;99.90;;;;;;5031334;28;20025;-72
2023/12/28 11:40:41;;;;;;;9.05;3.15;;;12.70;99.90;;;;;;5038397;28;20029;-72
2023/12/28 11:43:18;;;;;;;20.00;2.88;;;12.60;99.90;;;;;;5035605;28;21585;-71
2023/12/28 11:45:50;;;;;;;12.68;2.22;;;12.40;99.90;;;;;;5026621;28;20772;-73
2023/12/28 11:48:26;;;;;;;11.63;1.60;;;12.40;99.90;;;;;;5034230;28;20397;-70
2023/12/28 11:50:56;;;;;;;14.60;2.13;;;12.50;99.90;;;;;;5032169;28;20545;-71
2023/12/28 11:53:22;;;;;;;17.60;2.40;;;12.60;99.90;;;;;;5032388;28;20072;-71
2023/12/28 11:55:47;;;;;;;18.30;2.40;;;12.60;99.90;;;;;;5031949;28;20029;-71
2023/12/28 11:58:13;;;;;;;29.30;2.55;;;12.70;99.90;;;;;;5026772;28;20034;-71
2023/12/28 12:00:40;;;;;;;17.30;3.00;;;12.70;99.90;;;;;;5029366;28;20037;-71
2023/12/28 12:03:06;;;;;;;19.08;4.72;;;12.80;99.90;;;;;;5034770;28;20531;-71
2023/12/28 12:05:32;;;;;;;14.60;3.88;;;12.80;99.90;;;;;;5027548;28;20042;-71
2023/12/28 12:07:57;;;;;;;11.10;2.17;;;12.80;99.90;;;;;;5034403;28;20029;-72
2023/12/28 12:10:23;;;;;;;10.27;2.30;;;12.70;99.90;;;;;;5034598;28;20037;-72
2023/12/28 12:12:52;;;;;;;19.75;3.25;;;12.60;99.90;;;;;;5032086;28;20037;-71
2023/12/28 12:15:18;;;;;;;17.20;3.20;;;12.50;99.90;;;;;;5028661;28;20569;-71
2023/12/28 12:17:44;;;;;;;21.88;1.98;;;12.40;99.90;;;;;;5028098;28;20562;-71
2023/12/28 12:20:10;;;;;;;11.82;2.80;;;12.40;99.90;;;;;;5034405;28;20036;-72
2023/12/28 12:22:35;;;;;;;20.20;2.65;;;12.50;99.90;;;;;;5041547;28;20520;-71
2023/12/28 12:25:05;;;;;;;8.82;2.17;;;12.50;99.90;;;;;;5033400;28;20056;-70
2023/12/28 12:27:30;;;;;;;;;;;12.60;99.90;;;;;;5036519;28;20033;-72
2023/12/28 12:29:56;;;;;;;8.93;2.13;;;12.50;99.90;;;;;;5036165;28;19917;-71
2023/12/28 12:32:22;;;;;;;20.88;2.45;;;12.50;99.90;;;;;;5032058;28;20021;-71
2023/12/28 12:34:49;;;;;;;19.77;2.83;;;12.50;99.90;;;;;;5038017;28;20033;-72